»·PEaware :: N34VG KNZY-KPMD

N34VG :: KNZY-KPMD

FLIGHT INFORMATION

Flight Status: Arrived
Operator: Privately registered:
United States
More flights under this callsign
Pilot: John C. (9438)
Aircraft: PIPER PA-34 SENECA
(PA34)
More flights by this aircraft type
Origin: KNZY North Island NAS
United States
Destination: KPMD Palmdale AF Plant 42
United States
More flights between these airports :: More routes between these airports
Route: MZB V597 DARTS V459 BERRI V201 PMD
File this flight plan on PilotEdge
Remarks:
Altitude:
(Current/Filed)
8,000ft
Speed:
(Current/Filed)
150kts
Departed: 22-Sep-21 12:33 PM
Arrived: 22-Sep-21 01:39 PM
Distance/Time
Traveled:
124nm/1:06
Distance/Time
To Go:
Arrived

Flight Plot

Page will automatically refresh every two minutes.

Flight plan parsing failed; only flown route is shown


Map Options




Map Legend


Flown Route
Filed Route
Departure Airport
Arrival Airport
Navaid (VOR, NDB)
Fix

Horizontal Profiles

Position Reports

Time Latitude Longitude Heading Altitude Ground
Speed
22-Sep-21 11:54 32.709394 -117.211340 272 21ft 0kts
22-Sep-21 11:55 32.709394 -117.211340 272 21ft 0kts
22-Sep-21 11:56 32.709394 -117.211340 272 21ft 0kts
22-Sep-21 11:57 32.709394 -117.211340 272 21ft 0kts
22-Sep-21 11:58 32.709394 -117.211340 272 21ft 0kts
22-Sep-21 11:59 32.709394 -117.211340 272 21ft 0kts
22-Sep-21 12:00 32.709394 -117.211340 272 21ft 0kts
22-Sep-21 12:01 32.709394 -117.211340 272 21ft 0kts
22-Sep-21 12:02 32.709394 -117.211340 272 21ft 0kts
22-Sep-21 12:03 32.709394 -117.211340 272 21ft 0kts
22-Sep-21 12:04 32.709394 -117.211340 272 21ft 0kts
22-Sep-21 12:05 32.709394 -117.211340 272 21ft 0kts
22-Sep-21 12:06 32.709394 -117.211340 272 21ft 0kts
22-Sep-21 12:07 32.709394 -117.211340 272 21ft 0kts
22-Sep-21 12:08 32.709394 -117.211340 272 21ft 0kts
22-Sep-21 12:09 32.709394 -117.211340 272 21ft 0kts
22-Sep-21 12:10 32.709394 -117.211340 272 21ft 0kts
22-Sep-21 12:11 32.709394 -117.211340 272 21ft 0kts
22-Sep-21 12:12 32.709394 -117.211340 272 21ft 0kts
22-Sep-21 12:13 32.709394 -117.211340 272 21ft 0kts
22-Sep-21 12:14 32.709394 -117.211340 272 21ft 0kts
22-Sep-21 12:15 32.709394 -117.211340 272 21ft 0kts
22-Sep-21 12:16 32.709394 -117.211340 272 21ft 0kts
22-Sep-21 12:17 32.709394 -117.211340 272 21ft 0kts
22-Sep-21 12:18 32.709394 -117.211340 272 21ft 0kts
22-Sep-21 12:19 32.709394 -117.211340 272 21ft 0kts
22-Sep-21 12:20 32.709394 -117.211340 272 21ft 0kts
22-Sep-21 12:21 32.709394 -117.211340 272 21ft 0kts
22-Sep-21 12:22 32.709394 -117.211340 272 21ft 0kts
22-Sep-21 12:23 32.709394 -117.211340 272 21ft 0kts
22-Sep-21 12:24 32.709394 -117.211340 272 21ft 0kts
22-Sep-21 12:25 32.709394 -117.211340 272 21ft 0kts
22-Sep-21 12:26 32.709394 -117.211340 272 21ft 0kts
22-Sep-21 12:27 32.709394 -117.211340 272 21ft 0kts
22-Sep-21 12:28 32.709394 -117.211340 272 21ft 0kts
22-Sep-21 12:29 32.709394 -117.211340 272 21ft 0kts
22-Sep-21 12:30 32.709394 -117.211340 272 21ft 0kts
22-Sep-21 12:31 32.709394 -117.211340 272 21ft 0kts
22-Sep-21 12:32 32.698935 -117.215016 190 158ft 117kts
22-Sep-21 12:33 32.673411 -117.227166 220 1797ft 114kts
22-Sep-21 12:34 32.641671 -117.257044 222 2361ft 155kts
22-Sep-21 12:35 32.610495 -117.292248 254 3060ft 153kts
22-Sep-21 12:36 32.636296 -117.319742 350 3886ft 146kts
22-Sep-21 12:37 32.676164 -117.325547 352 4920ft 142kts
22-Sep-21 12:38 32.714751 -117.331000 352 6123ft 137kts
22-Sep-21 12:39 32.752348 -117.336484 347 7065ft 149kts
22-Sep-21 12:40 32.798637 -117.344571 351 6618ft 177kts
22-Sep-21 12:41 32.847087 -117.352568 351 6272ft 170kts
22-Sep-21 12:42 32.893014 -117.360148 350 6249ft 164kts
22-Sep-21 12:43 32.938212 -117.367607 350 6249ft 163kts
22-Sep-21 12:44 32.983202 -117.375042 350 6249ft 163kts
22-Sep-21 12:45 33.027954 -117.380773 15 6238ft 161kts
22-Sep-21 12:46 33.069619 -117.385188 341 6256ft 158kts
22-Sep-21 12:47 33.113523 -117.393731 348 6248ft 160kts
22-Sep-21 12:48 33.157749 -117.402090 349 6250ft 160kts
22-Sep-21 12:49 33.202030 -117.410042 349 6250ft 160kts
22-Sep-21 12:50 33.242060 -117.426272 306 6246ft 154kts
22-Sep-21 12:51 33.271486 -117.463462 320 6478ft 148kts
22-Sep-21 12:52 33.303210 -117.493900 332 7075ft 141kts
22-Sep-21 12:53 33.329082 -117.520624 309 8077ft 126kts
22-Sep-21 12:54 33.354044 -117.549816 313 9090ft 123kts
22-Sep-21 12:55 33.377822 -117.577607 312 10083ft 115kts
22-Sep-21 12:56 33.402482 -117.606489 313 10526ft 141kts
22-Sep-21 12:57 33.432293 -117.641331 313 10554ft 155kts
22-Sep-21 12:58 33.463469 -117.677821 313 10564ft 158kts
22-Sep-21 12:59 33.494889 -117.714672 313 10569ft 157kts
22-Sep-21 13:00 33.526080 -117.751305 313 10571ft 157kts
22-Sep-21 13:01 33.557444 -117.788160 313 10553ft 158kts
22-Sep-21 13:02 33.588817 -117.825085 313 10541ft 157kts
22-Sep-21 13:03 33.620131 -117.861963 313 10543ft 158kts
22-Sep-21 13:04 33.651516 -117.898962 313 10546ft 157kts
22-Sep-21 13:05 33.682723 -117.935796 312 10548ft 157kts
22-Sep-21 13:06 33.713778 -117.972478 312 10548ft 156kts
22-Sep-21 13:07 33.744941 -118.009338 312 10547ft 157kts
22-Sep-21 13:08 33.776137 -118.046245 313 10532ft 157kts
22-Sep-21 13:09 33.814242 -118.072455 331 10512ft 159kts
22-Sep-21 13:11 33.853987 -118.095334 331 10513ft 159kts
22-Sep-21 13:12 33.894037 -118.118358 331 10513ft 159kts
22-Sep-21 13:13 33.934049 -118.141380 331 10558ft 156kts
22-Sep-21 13:14 33.974192 -118.164519 331 10498ft 160kts
22-Sep-21 13:15 34.014335 -118.187667 331 10492ft 160kts
22-Sep-21 13:16 34.054465 -118.210837 331 10486ft 160kts
22-Sep-21 13:17 34.094801 -118.234150 331 10483ft 160kts
22-Sep-21 13:18 34.135211 -118.257530 331 10483ft 161kts
22-Sep-21 13:19 34.175454 -118.280836 331 10482ft 160kts
22-Sep-21 13:20 34.218357 -118.282618 20 10494ft 167kts
22-Sep-21 13:21 34.261225 -118.259846 20 10493ft 169kts
22-Sep-21 13:22 34.304301 -118.236838 21 10484ft 167kts
22-Sep-21 13:23 34.347102 -118.213406 21 10484ft 170kts
22-Sep-21 13:24 34.389878 -118.190004 21 10494ft 168kts
22-Sep-21 13:25 34.434246 -118.165802 21 9915ft 175kts
22-Sep-21 13:26 34.479083 -118.141227 21 8904ft 177kts
22-Sep-21 13:27 34.523909 -118.116555 21 7878ft 175kts
22-Sep-21 13:28 34.568587 -118.091690 21 6774ft 178kts
22-Sep-21 13:29 34.598723 -118.045642 70 5572ft 180kts
22-Sep-21 13:30 34.611790 -117.994589 72 4765ft 136kts
22-Sep-21 13:31 34.617462 -117.951973 90 4657ft 121kts
22-Sep-21 13:32 34.617192 -117.910245 77 4391ft 134kts
22-Sep-21 13:33 34.643816 -117.896675 296 4067ft 104kts
22-Sep-21 13:34 34.640887 -117.930536 261 4058ft 103kts
22-Sep-21 13:35 34.638695 -117.966110 266 4051ft 107kts
22-Sep-21 13:36 34.636688 -118.002194 266 3659ft 103kts
22-Sep-21 13:36 34.635360 -118.030905 265 3182ft 103kts
22-Sep-21 13:38 34.633074 -118.070459 259 2593ft 94kts
22-Sep-21 13:39 34.632926 -118.083124 88 2516ft 30kts
22-Sep-21 13:40 34.634563 -118.073416 5 2497ft 19kts
22-Sep-21 13:41 34.635375 -118.073425 36 2499ft 0kts
22-Sep-21 13:41 34.635375 -118.073425 36 2499ft 0kts

Navigation Log

Ident Type
Flight plan parsing failed, navigation log unavailable